createdAt,value
2023-03-17T00:00:59.405Z,6.92
2023-03-17T00:01:59.453Z,6.92
2023-03-17T00:02:59.386Z,6.92
2023-03-17T00:03:59.444Z,6.92
2023-03-17T00:04:59.360Z,6.92
2023-03-17T00:05:59.400Z,6.92
2023-03-17T00:06:59.359Z,6.92
2023-03-17T00:07:59.350Z,6.89
2023-03-17T00:08:59.319Z,6.89
2023-03-17T00:09:59.323Z,6.93
2023-03-17T00:10:59.311Z,6.89
2023-03-17T00:11:59.324Z,6.88
2023-03-17T00:12:59.275Z,6.92
2023-03-17T00:13:59.277Z,6.92
2023-03-17T00:14:59.269Z,6.92
2023-03-17T00:15:59.321Z,6.92
2023-03-17T00:16:59.249Z,6.92
2023-03-17T00:17:59.231Z,6.93
2023-03-17T00:18:59.232Z,6.93
2023-03-17T00:19:59.199Z,6.89
2023-03-17T00:20:59.236Z,6.89
2023-03-17T00:21:59.195Z,6.88
2023-03-17T00:22:59.184Z,6.92
2023-03-17T00:23:59.172Z,6.92
2023-03-17T00:24:59.159Z,6.92
2023-03-17T00:25:59.137Z,6.88
2023-03-17T00:26:59.170Z,6.89
2023-03-17T00:27:59.143Z,6.89
2023-03-17T00:28:59.185Z,6.88
2023-03-17T00:29:59.090Z,6.87
2023-03-17T00:30:59.247Z,6.87
2023-03-17T00:31:59.077Z,6.87
2023-03-17T00:32:59.137Z,6.87
2023-03-17T00:33:59.048Z,6.87
2023-03-17T00:34:59.069Z,6.87
2023-03-17T00:35:59.083Z,6.87
2023-03-17T00:36:59.029Z,6.88
2023-03-17T00:37:59.003Z,6.88
2023-03-17T00:38:59.010Z,6.85
2023-03-17T00:39:58.984Z,6.85
2023-03-17T00:40:59.020Z,6.87
2023-03-17T00:41:58.964Z,6.85
2023-03-17T00:42:58.970Z,6.84
2023-03-17T00:43:58.943Z,6.84
2023-03-17T00:44:58.953Z,6.85
2023-03-17T00:45:58.966Z,6.84
2023-03-17T00:46:58.994Z,6.82
2023-03-17T00:47:58.921Z,6.82
2023-03-17T00:48:58.908Z,6.84
2023-03-17T00:49:58.888Z,6.81
2023-03-17T00:50:58.883Z,6.79
2023-03-17T00:51:58.866Z,6.79
2023-03-17T00:52:58.898Z,6.78
2023-03-17T00:53:58.914Z,6.77
2023-03-17T00:54:58.828Z,6.77
2023-03-17T00:55:58.823Z,6.77
2023-03-17T00:56:58.816Z,6.77
2023-03-17T00:57:58.796Z,6.78
2023-03-17T00:58:58.802Z,6.79
2023-03-17T00:59:58.767Z,6.77
2023-03-17T01:00:58.837Z,6.72
2023-03-17T01:01:58.799Z,6.72
2023-03-17T01:02:58.758Z,6.70
2023-03-17T01:03:58.744Z,6.72
2023-03-17T01:05:05.768Z,6.74
2023-03-17T01:05:58.698Z,6.70
2023-03-17T01:06:58.709Z,6.69
2023-03-17T01:07:58.681Z,6.67
2023-03-17T01:08:58.698Z,6.66
2023-03-17T01:09:58.664Z,6.66
2023-03-17T01:10:58.664Z,6.66
2023-03-17T01:11:58.632Z,6.63
2023-03-17T01:12:58.660Z,6.66
2023-03-17T01:13:58.637Z,6.66
2023-03-17T01:14:58.610Z,6.66
2023-03-17T01:15:58.650Z,6.66
2023-03-17T01:16:58.600Z,6.63
2023-03-17T01:17:58.575Z,6.64
2023-03-17T01:18:58.627Z,6.66
2023-03-17T01:19:58.578Z,6.66
2023-03-17T01:20:58.564Z,6.64
2023-03-17T01:21:58.537Z,6.64
2023-03-17T01:22:58.546Z,6.64
2023-03-17T01:23:58.497Z,6.64
2023-03-17T01:24:58.524Z,6.63
2023-03-17T01:25:58.486Z,6.64
2023-03-17T01:26:58.487Z,6.66
2023-03-17T01:27:58.469Z,6.66
2023-03-17T01:28:58.482Z,6.64
2023-03-17T01:29:58.444Z,6.64
2023-03-17T01:30:58.485Z,6.66
2023-03-17T01:31:58.476Z,6.64
2023-03-17T01:32:58.486Z,6.62
2023-03-17T01:33:58.392Z,6.62
2023-03-17T01:34:58.425Z,6.63
2023-03-17T01:35:58.490Z,6.62
2023-03-17T01:36:58.368Z,6.62
2023-03-17T01:37:58.351Z,6.62
2023-03-17T01:38:58.369Z,6.62
2023-03-17T01:39:58.338Z,6.60
2023-03-17T01:40:58.341Z,6.62
2023-03-17T01:41:58.324Z,6.63
2023-03-17T01:42:58.335Z,6.64
2023-03-17T01:43:58.292Z,6.63
2023-03-17T01:44:58.315Z,6.62
2023-03-17T01:45:58.305Z,6.60
2023-03-17T01:46:58.277Z,6.62
2023-03-17T01:47:58.249Z,6.60
2023-03-17T01:48:58.260Z,6.62
2023-03-17T01:49:58.222Z,6.64
2023-03-17T01:50:58.272Z,6.66
2023-03-17T01:51:58.233Z,6.64
2023-03-17T01:52:58.214Z,6.66
2023-03-17T01:53:58.196Z,6.66
2023-03-17T01:54:58.190Z,6.66
2023-03-17T01:55:58.165Z,6.66
2023-03-17T01:56:58.185Z,6.64
2023-03-17T01:57:58.144Z,6.62
2023-03-17T01:58:58.159Z,6.57
2023-03-17T01:59:58.120Z,6.57
2023-03-17T02:00:58.156Z,6.57
2023-03-17T02:01:58.107Z,6.56
2023-03-17T02:02:58.127Z,6.56
2023-03-17T02:03:58.110Z,6.57
2023-03-17T02:04:58.084Z,6.54
2023-03-17T02:05:58.120Z,6.52
2023-03-17T02:06:58.899Z,6.52
2023-03-17T02:07:58.053Z,6.51
2023-03-17T02:08:58.039Z,6.52
2023-03-17T02:09:58.012Z,6.49
2023-03-17T02:10:58.029Z,6.49
2023-03-17T02:11:58.002Z,6.48
2023-03-17T02:12:57.994Z,6.46
2023-03-17T02:13:58.012Z,6.44
2023-03-17T02:14:57.974Z,6.44
2023-03-17T02:15:57.946Z,6.42
2023-03-17T02:16:57.980Z,6.41
2023-03-17T02:17:57.925Z,6.36
2023-03-17T02:18:57.944Z,6.35
2023-03-17T02:19:57.912Z,6.38
2023-03-17T02:20:57.916Z,6.36
2023-03-17T02:21:57.912Z,6.36
2023-03-17T02:22:57.878Z,6.35
2023-03-17T02:23:57.860Z,6.33
2023-03-17T02:24:57.883Z,6.30
2023-03-17T02:25:57.838Z,6.27
2023-03-17T02:26:57.841Z,6.27
2023-03-17T02:27:57.815Z,6.22
2023-03-17T02:28:57.822Z,6.24
2023-03-17T02:29:57.806Z,6.22
2023-03-17T07:00:56.294Z,4.97
2023-03-17T07:01:57.256Z,5.00
2023-03-17T07:02:57.195Z,5.05
2023-03-17T07:03:57.160Z,5.10
2023-03-17T07:04:57.228Z,5.11
2023-03-17T07:05:57.185Z,5.12
2023-03-17T07:06:57.166Z,5.14
2023-03-17T07:07:57.127Z,5.17
2023-03-17T07:08:57.126Z,5.20
2023-03-17T07:09:57.114Z,5.23
2023-03-17T07:10:57.103Z,5.25
2023-03-17T07:11:57.110Z,5.29
2023-03-17T07:12:57.089Z,5.29
2023-03-17T07:13:57.062Z,5.36
2023-03-17T07:14:57.076Z,5.35
2023-03-17T07:16:00.341Z,5.35
2023-03-17T07:16:57.059Z,5.36
2023-03-17T07:17:57.008Z,5.36
2023-03-17T07:18:57.027Z,5.41
2023-03-17T07:19:56.998Z,5.43
2023-03-17T07:20:57.028Z,5.46
2023-03-17T07:21:56.971Z,5.48
2023-03-17T07:22:56.977Z,5.50
2023-03-17T07:23:56.961Z,5.51
2023-03-17T07:24:56.971Z,5.51
2023-03-17T07:25:56.928Z,5.51
2023-03-17T07:26:56.976Z,5.51
2023-03-17T07:27:56.919Z,5.53
2023-03-17T07:28:56.938Z,5.54
2023-03-17T07:29:56.949Z,5.61
2023-03-17T07:30:56.905Z,5.65
2023-03-17T07:31:56.876Z,5.64
2023-03-17T07:32:56.935Z,5.66
2023-03-17T07:33:57.398Z,5.68
2023-03-17T07:34:56.868Z,5.66
2023-03-17T07:35:56.924Z,5.68
2023-03-17T07:36:56.845Z,5.65
2023-03-17T07:37:56.819Z,5.68
2023-03-17T07:38:56.826Z,5.71
2023-03-17T07:39:56.800Z,5.73
2023-03-17T07:40:56.842Z,5.75
2023-03-17T07:41:56.777Z,5.75
2023-03-17T07:42:56.777Z,5.80
2023-03-17T07:43:56.773Z,5.82
2023-03-17T07:44:56.751Z,5.86
2023-03-17T07:45:56.720Z,5.89
2023-03-17T07:46:56.744Z,5.91
2023-03-17T07:47:56.701Z,5.94
2023-03-17T07:48:56.737Z,5.97
2023-03-17T07:49:56.663Z,5.98
2023-03-17T07:50:56.668Z,6.02
2023-03-17T07:51:56.684Z,6.05
2023-03-17T07:52:56.676Z,6.07
2023-03-17T07:53:56.645Z,6.07
2023-03-17T07:54:56.675Z,6.09
2023-03-17T07:55:56.632Z,6.12
2023-03-17T07:56:56.645Z,6.11
2023-03-17T07:57:56.606Z,6.12
2023-03-17T07:58:56.588Z,6.14
2023-03-17T07:59:56.595Z,6.17
2023-03-17T08:00:56.593Z,6.20
2023-03-17T08:01:56.549Z,6.24
2023-03-17T08:03:09.259Z,6.26
2023-03-17T08:03:56.758Z,6.28
2023-03-17T08:04:56.518Z,6.35
2023-03-17T08:05:56.529Z,6.38
2023-03-17T08:06:56.502Z,6.39
2023-03-17T08:07:56.475Z,6.41
2023-03-17T08:08:56.542Z,6.44
2023-03-17T08:09:56.449Z,6.46
2023-03-17T08:10:56.482Z,6.49
2023-03-17T08:11:56.434Z,6.54
2023-03-17T08:12:56.475Z,6.57
2023-03-17T08:13:56.408Z,6.60
2023-03-17T08:14:56.442Z,6.62
2023-03-17T08:15:56.413Z,6.64
2023-03-17T08:16:56.501Z,6.64
2023-03-17T08:17:56.375Z,6.66
2023-03-17T08:18:56.366Z,6.67
2023-03-17T08:19:56.353Z,6.69
2023-03-17T08:20:56.375Z,6.70
2023-03-17T08:21:56.331Z,6.75
2023-03-17T08:22:56.511Z,6.75
2023-03-17T08:23:56.333Z,6.78
2023-03-17T08:24:56.351Z,6.82
2023-03-17T08:25:56.326Z,6.85
2023-03-17T08:26:56.935Z,6.85
2023-03-17T08:27:56.288Z,6.87
2023-03-17T08:28:56.263Z,6.92
2023-03-17T08:29:56.269Z,6.95
2023-03-17T08:30:56.317Z,6.93
2023-03-17T08:31:56.315Z,6.97
2023-03-17T08:32:56.243Z,6.99
2023-03-17T08:33:56.246Z,7.03
2023-03-17T08:34:56.204Z,7.07
2023-03-17T08:35:56.227Z,7.11
2023-03-17T08:36:56.165Z,7.14
2023-03-17T08:37:56.338Z,7.15
2023-03-17T08:38:56.197Z,7.17
2023-03-17T08:39:56.159Z,7.21
2023-03-17T08:40:56.127Z,7.23
2023-03-17T08:41:56.122Z,7.25
2023-03-17T08:42:56.153Z,7.29
2023-03-17T08:43:56.175Z,7.31
2023-03-17T08:44:56.135Z,7.31
2023-03-17T08:45:56.111Z,7.32
2023-03-17T08:46:56.062Z,7.35
2023-03-17T08:47:56.114Z,7.39
2023-03-17T08:48:56.058Z,7.42
2023-03-17T08:49:56.078Z,7.45
2023-03-17T08:50:56.207Z,7.50
2023-03-17T08:51:56.042Z,7.54
2023-03-17T08:52:56.002Z,7.56
2023-03-17T08:53:56.020Z,7.60
2023-03-17T08:54:56.004Z,7.67
2023-03-17T08:55:56.265Z,7.72
2023-03-17T08:56:55.954Z,7.76
2023-03-17T08:57:55.968Z,7.77
2023-03-17T08:58:55.970Z,7.85
2023-03-17T08:59:55.973Z,7.90
2023-03-17T09:00:56.036Z,7.94
2023-03-17T09:01:56.064Z,8.01
2023-03-17T09:02:55.947Z,8.06
2023-03-17T09:03:55.912Z,8.13
2023-03-17T09:04:55.858Z,8.18
2023-03-17T09:05:55.885Z,8.23
2023-03-17T09:07:03.241Z,8.28
2023-03-17T09:07:55.927Z,8.31
2023-03-17T09:08:55.826Z,8.37
2023-03-17T09:09:55.831Z,8.42
2023-03-17T09:10:55.797Z,8.46
2023-03-17T09:11:55.815Z,8.51
2023-03-17T09:12:55.807Z,8.58
2023-03-17T09:13:55.820Z,8.64
2023-03-17T09:14:55.787Z,8.67
2023-03-17T09:15:55.799Z,8.74
2023-03-17T09:16:55.741Z,8.81
2023-03-17T09:17:55.779Z,8.85
2023-03-17T09:18:55.760Z,8.89
2023-03-17T09:19:55.762Z,8.94
2023-03-17T09:20:55.702Z,9.00
2023-03-17T09:21:55.703Z,9.06
2023-03-17T09:22:55.680Z,9.11
2023-03-17T09:23:55.681Z,9.14
2023-03-17T09:24:55.774Z,9.19
2023-03-17T09:25:55.657Z,9.23
2023-03-17T09:26:55.676Z,9.26
2023-03-17T09:27:56.658Z,9.34
2023-03-17T09:28:55.605Z,9.39
2023-03-17T09:29:55.740Z,9.43
2023-03-17T09:30:56.897Z,9.48
2023-03-17T09:31:55.597Z,9.54
2023-03-17T09:32:55.643Z,9.56
2023-03-17T09:33:55.570Z,9.61
2023-03-17T09:34:55.569Z,9.64
2023-03-17T09:35:55.565Z,9.66
2023-03-17T09:36:55.597Z,9.73
2023-03-17T09:37:55.538Z,9.79
2023-03-17T09:38:55.501Z,9.83
2023-03-17T09:39:55.520Z,9.91
2023-03-17T09:40:55.488Z,9.95
2023-03-17T09:41:55.553Z,9.99
2023-03-17T09:42:55.492Z,10.05
2023-03-17T09:43:55.459Z,10.10
2023-03-17T09:44:55.450Z,10.15
2023-03-17T09:45:55.446Z,10.19
2023-03-17T09:46:55.577Z,10.22
2023-03-17T09:47:55.470Z,10.28
2023-03-17T09:48:55.435Z,10.33
2023-03-17T09:49:55.422Z,10.34
2023-03-17T09:50:55.389Z,10.38
2023-03-17T09:51:55.368Z,10.42
2023-03-17T09:52:55.381Z,10.48
2023-03-17T09:53:55.355Z,10.56
2023-03-17T09:54:55.339Z,10.57
2023-03-17T09:55:55.325Z,10.61
2023-03-17T09:56:55.358Z,10.63
2023-03-17T09:57:55.313Z,10.64
2023-03-17T09:58:55.279Z,10.69
2023-03-17T09:59:55.314Z,10.74
2023-03-17T10:00:55.264Z,10.78
2023-03-17T10:01:55.307Z,10.79
2023-03-17T10:02:55.236Z,10.84
2023-03-17T10:03:55.244Z,10.87
2023-03-17T10:04:55.301Z,10.89
2023-03-17T10:05:55.242Z,10.93
2023-03-17T10:06:55.234Z,10.96
2023-03-17T10:07:55.201Z,11.04
2023-03-17T10:08:55.190Z,11.05
2023-03-17T10:09:55.178Z,11.10
2023-03-17T10:10:55.172Z,11.11
2023-03-17T10:11:55.167Z,11.15
2023-03-17T10:12:55.158Z,11.17
2023-03-17T10:13:55.128Z,11.17
2023-03-17T10:14:55.111Z,11.23
2023-03-17T10:15:55.164Z,11.26
2023-03-17T10:16:55.101Z,11.29
2023-03-17T10:17:55.112Z,11.33
2023-03-17T10:18:55.066Z,11.37
2023-03-17T10:19:55.091Z,11.37
2023-03-17T10:20:55.047Z,11.44
2023-03-17T10:21:55.053Z,11.47
2023-03-17T10:22:55.024Z,11.50
2023-03-17T10:23:55.054Z,11.50
2023-03-17T10:24:55.005Z,11.52
2023-03-17T10:25:55.029Z,11.57
2023-03-17T10:26:55.871Z,11.59
2023-03-17T10:27:55.000Z,11.62
2023-03-17T10:28:54.973Z,11.69
2023-03-17T10:29:54.980Z,11.70
2023-03-17T10:30:54.960Z,11.75
2023-03-17T10:31:58.123Z,11.78
2023-03-17T10:32:54.978Z,11.80
2023-03-17T10:33:54.926Z,11.81
2023-03-17T10:34:54.892Z,11.84
2023-03-17T10:35:54.946Z,11.86
2023-03-17T10:36:54.888Z,11.88
2023-03-17T10:38:08.021Z,11.91
2023-03-17T10:38:54.877Z,11.95
2023-03-17T10:39:54.887Z,11.97
2023-03-17T10:40:54.838Z,12.02
2023-03-17T10:41:54.882Z,12.04
2023-03-17T10:42:54.827Z,12.09
2023-03-17T10:43:54.834Z,12.09
2023-03-17T10:44:54.819Z,12.13
2023-03-17T10:45:54.832Z,12.15
2023-03-17T10:46:54.868Z,12.17
2023-03-17T10:47:54.785Z,12.21
2023-03-17T10:48:54.758Z,12.24
2023-03-17T10:49:54.755Z,12.25
2023-03-17T10:50:54.725Z,12.31
2023-03-17T10:51:54.763Z,12.36
2023-03-17T10:52:54.719Z,12.39
2023-03-17T10:53:54.698Z,12.43
2023-03-17T10:54:54.704Z,12.49
2023-03-17T10:55:54.718Z,12.54
2023-03-17T10:56:54.652Z,12.58
2023-03-17T10:57:54.680Z,12.61
2023-03-17T10:58:54.660Z,12.68
2023-03-17T10:59:55.463Z,12.68
2023-03-17T11:00:54.672Z,12.72
2023-03-17T11:01:54.612Z,12.78
2023-03-17T11:02:54.619Z,12.79
2023-03-17T11:03:54.688Z,12.78
2023-03-17T11:04:54.562Z,12.79
2023-03-17T11:05:54.567Z,12.82
2023-03-17T11:06:54.557Z,12.82
2023-03-17T11:07:54.577Z,12.87
2023-03-17T11:08:54.526Z,12.90
2023-03-17T11:09:54.529Z,12.91
2023-03-17T11:10:54.508Z,12.94
2023-03-17T11:11:54.518Z,12.98
2023-03-17T11:12:54.504Z,13.04
2023-03-17T11:13:54.497Z,13.05
2023-03-17T11:14:54.457Z,13.11
2023-03-17T11:15:54.465Z,13.12
2023-03-17T11:16:54.469Z,13.12
2023-03-17T11:17:54.443Z,13.13
2023-03-17T11:18:54.432Z,13.16
2023-03-17T11:19:54.469Z,13.19
2023-03-17T11:20:54.401Z,13.23
2023-03-17T11:21:54.412Z,13.30
2023-03-17T11:22:54.381Z,13.31
2023-03-17T11:23:54.384Z,13.35
2023-03-17T11:24:54.400Z,13.35
2023-03-17T11:25:54.371Z,13.37
2023-03-17T11:26:54.360Z,13.41
2023-03-17T11:27:54.331Z,13.44
2023-03-17T11:28:54.316Z,13.47
2023-03-17T11:29:54.346Z,13.53
2023-03-17T11:30:54.327Z,13.56
2023-03-17T11:31:54.375Z,13.62
2023-03-17T11:32:54.287Z,13.65
2023-03-17T11:33:54.270Z,13.67
2023-03-17T11:34:54.253Z,13.71
2023-03-17T11:35:54.285Z,13.75
2023-03-17T11:36:56.485Z,13.79
2023-03-17T11:37:54.231Z,13.85
2023-03-17T11:38:54.195Z,13.86
2023-03-17T11:39:54.225Z,13.89
2023-03-17T11:40:54.182Z,13.92
2023-03-17T11:41:54.195Z,13.93
2023-03-17T11:42:55.369Z,13.96
2023-03-17T11:43:54.216Z,14.00
2023-03-17T11:44:54.135Z,14.04
2023-03-17T11:45:54.314Z,14.08
2023-03-17T11:46:54.164Z,14.10
2023-03-17T11:47:54.146Z,14.12
2023-03-17T11:48:54.147Z,14.14
2023-03-17T11:49:54.106Z,14.20
2023-03-17T11:50:54.078Z,14.22
2023-03-17T11:51:54.106Z,14.25
2023-03-17T11:52:54.074Z,14.26
2023-03-17T11:53:54.054Z,14.25
2023-03-17T11:54:55.988Z,14.26
2023-03-17T11:55:54.027Z,14.28
2023-03-17T11:56:54.007Z,14.29
2023-03-17T11:57:54.006Z,14.33
2023-03-17T11:58:54.019Z,14.35
2023-03-17T11:59:53.982Z,14.43
2023-03-17T12:00:53.975Z,14.45
2023-03-17T12:01:53.974Z,14.53
2023-03-17T12:02:53.939Z,14.54
2023-03-17T12:03:54.139Z,14.55
2023-03-17T12:04:53.949Z,14.62
2023-03-17T12:05:53.930Z,14.63
2023-03-17T12:06:55.416Z,14.68
2023-03-17T12:07:53.887Z,14.69
2023-03-17T12:08:53.871Z,14.69
2023-03-17T12:09:53.897Z,14.69
2023-03-17T12:10:53.842Z,14.72
2023-03-17T12:11:53.861Z,14.70
2023-03-17T12:12:53.837Z,14.73
2023-03-17T12:13:53.834Z,14.79
2023-03-17T12:14:53.805Z,14.81
2023-03-17T12:15:53.863Z,14.85
2023-03-17T12:16:53.822Z,14.91
2023-03-17T12:17:53.779Z,14.92
2023-03-17T12:18:53.793Z,14.96
2023-03-17T12:19:53.759Z,14.99
2023-03-17T12:20:53.754Z,15.02
2023-03-17T12:21:53.763Z,15.03
2023-03-17T12:22:55.805Z,15.09
2023-03-17T12:23:53.726Z,15.10
2023-03-17T12:24:53.713Z,15.06
2023-03-17T12:25:53.706Z,15.09
2023-03-17T12:26:53.745Z,15.09
2023-03-17T12:27:53.710Z,15.07
2023-03-17T12:28:55.194Z,15.11
2023-03-17T12:29:53.672Z,15.14
2023-03-17T12:30:53.663Z,15.15
2023-03-17T12:31:53.631Z,15.18
2023-03-17T12:32:53.738Z,15.24
2023-03-17T12:33:53.658Z,15.27
2023-03-17T12:34:55.012Z,15.25
2023-03-17T12:35:53.612Z,15.28
2023-03-17T12:36:53.652Z,15.27
2023-03-17T12:37:53.568Z,15.27
2023-03-17T12:38:53.550Z,15.24
2023-03-17T12:39:53.545Z,15.24
2023-03-17T12:40:53.529Z,15.25
2023-03-17T12:41:53.559Z,15.29
2023-03-17T12:42:53.495Z,15.31
2023-03-17T12:43:53.510Z,15.33
2023-03-17T12:44:53.483Z,15.35
2023-03-17T12:45:54.358Z,15.31
2023-03-17T12:46:53.526Z,15.31
2023-03-17T12:47:53.438Z,15.33
2023-03-17T12:48:53.461Z,15.33
2023-03-17T12:49:53.418Z,15.31
2023-03-17T12:50:53.434Z,15.35
2023-03-17T12:51:53.407Z,15.36
2023-03-17T12:52:53.522Z,15.40
2023-03-17T12:53:53.373Z,15.46
2023-03-17T12:54:53.380Z,15.46
2023-03-17T12:55:53.347Z,15.47
2023-03-17T12:56:54.063Z,15.44
2023-03-17T12:57:53.337Z,15.46
2023-03-17T12:58:53.396Z,15.46
2023-03-17T12:59:53.309Z,15.47
2023-03-17T13:00:53.322Z,15.51
2023-03-17T13:01:53.334Z,15.54
2023-03-17T13:02:53.339Z,15.58
2023-03-17T13:03:53.263Z,15.59
2023-03-17T13:04:53.298Z,15.59
2023-03-17T13:05:53.240Z,15.59
2023-03-17T13:06:53.248Z,15.58
2023-03-17T13:07:53.346Z,15.61
2023-03-17T13:08:53.225Z,15.62
2023-03-17T13:09:53.222Z,15.64
2023-03-17T13:10:53.236Z,15.64
2023-03-17T13:11:53.178Z,15.64
2023-03-17T13:12:53.180Z,15.67
2023-03-17T13:13:53.163Z,15.68
2023-03-17T13:14:53.153Z,15.68
2023-03-17T13:15:53.181Z,15.70
2023-03-17T13:16:53.154Z,15.67
2023-03-17T13:17:53.129Z,15.64
2023-03-17T13:18:53.119Z,15.64
2023-03-17T13:19:53.093Z,15.61
2023-03-17T13:20:53.112Z,15.54
2023-03-17T13:21:53.097Z,15.52
2023-03-17T13:22:53.068Z,15.46
2023-03-17T13:23:53.046Z,15.49
2023-03-17T13:24:53.063Z,15.44
2023-03-17T13:25:53.026Z,15.44
2023-03-17T13:26:54.895Z,15.40
2023-03-17T13:27:53.023Z,15.33
2023-03-17T13:28:53.012Z,15.28
2023-03-17T13:29:52.990Z,15.28
2023-03-17T13:30:52.984Z,15.27
2023-03-17T13:31:53.034Z,15.25
2023-03-17T13:32:53.085Z,15.27
2023-03-17T13:33:52.946Z,15.29
2023-03-17T13:34:52.973Z,15.25
2023-03-17T13:35:52.988Z,15.24
2023-03-17T13:36:52.915Z,15.22
2023-03-17T13:37:52.910Z,15.24
2023-03-17T13:39:15.011Z,15.27
2023-03-17T13:39:52.877Z,15.22
2023-03-17T13:40:52.903Z,15.22
2023-03-17T13:41:52.862Z,15.25
2023-03-17T13:42:52.865Z,15.28
2023-03-17T13:43:52.853Z,15.29
2023-03-17T13:44:52.849Z,15.28
2023-03-17T13:45:52.806Z,15.28
2023-03-17T13:46:52.875Z,15.28
2023-03-17T13:47:52.833Z,15.24
2023-03-17T13:48:52.815Z,15.27
2023-03-17T13:49:52.773Z,15.25
2023-03-17T13:50:52.785Z,15.22
2023-03-17T13:51:59.594Z,15.24
2023-03-17T13:52:52.773Z,15.24
2023-03-17T13:53:52.726Z,15.22
2023-03-17T13:54:52.762Z,15.27
2023-03-17T13:55:52.755Z,15.27
2023-03-17T13:56:52.709Z,15.29
2023-03-17T13:57:52.686Z,15.29
2023-03-17T13:58:52.734Z,15.31
2023-03-17T13:59:52.684Z,15.31
2023-03-17T14:00:52.738Z,15.28
2023-03-17T14:01:52.646Z,15.27
2023-03-17T14:02:52.659Z,15.28
2023-03-17T14:03:52.630Z,15.27
2023-03-17T14:04:52.667Z,15.22
2023-03-17T14:05:52.654Z,15.24
2023-03-17T14:06:52.595Z,15.24
2023-03-17T14:07:52.585Z,15.28
2023-03-17T14:08:52.574Z,15.29
2023-03-17T14:09:52.566Z,15.29
2023-03-17T14:10:52.557Z,15.31
2023-03-17T14:11:52.538Z,15.28
2023-03-17T14:12:52.562Z,15.27
2023-03-17T14:13:52.531Z,15.27
2023-03-17T14:14:52.538Z,15.28
2023-03-17T14:15:52.530Z,15.31
2023-03-17T14:16:52.491Z,15.37
2023-03-17T14:17:52.468Z,15.39
2023-03-17T14:18:52.469Z,15.42
2023-03-17T14:19:52.454Z,15.43
2023-03-17T14:20:52.439Z,15.44
2023-03-17T14:21:52.484Z,15.49
2023-03-17T14:22:52.422Z,15.54
2023-03-17T14:23:52.411Z,15.61
2023-03-17T14:24:52.396Z,15.65
2023-03-17T14:25:52.380Z,15.67
2023-03-17T14:26:52.397Z,15.72
2023-03-17T14:27:52.378Z,15.75
2023-03-17T14:28:52.360Z,15.77
2023-03-17T14:29:52.436Z,15.77
2023-03-17T14:30:52.333Z,15.84
2023-03-17T14:31:52.364Z,15.83
2023-03-17T14:32:52.359Z,15.88
2023-03-17T14:33:52.311Z,15.90
2023-03-17T14:34:52.298Z,15.90
2023-03-17T14:35:52.342Z,15.91
2023-03-17T14:36:52.290Z,15.91
2023-03-17T14:37:52.277Z,15.88
2023-03-17T14:38:52.274Z,15.83
2023-03-17T14:39:52.235Z,15.83
2023-03-17T14:40:52.229Z,15.86
2023-03-17T14:41:52.201Z,15.86
2023-03-17T14:42:52.198Z,15.84
2023-03-17T14:43:52.261Z,15.86
2023-03-17T14:44:52.175Z,15.88
2023-03-17T14:45:52.231Z,15.90
2023-03-17T14:46:52.159Z,15.88
2023-03-17T14:47:52.150Z,15.88
2023-03-17T14:48:52.177Z,15.86
2023-03-17T14:49:52.109Z,15.83
2023-03-17T14:50:52.118Z,15.83
2023-03-17T14:51:52.089Z,15.80
2023-03-17T14:52:52.134Z,15.80
2023-03-17T14:53:52.081Z,15.83
2023-03-17T14:54:52.116Z,15.86
2023-03-17T14:55:52.070Z,15.83
2023-03-17T14:56:52.073Z,15.84
2023-03-17T14:57:52.032Z,15.83
2023-03-17T14:58:52.093Z,15.83
2023-03-17T14:59:52.025Z,15.84
2023-03-17T15:00:52.055Z,15.80
2023-03-17T15:01:51.995Z,15.83
2023-03-17T15:02:51.993Z,15.82
2023-03-17T15:03:51.973Z,15.84
2023-03-17T15:04:51.989Z,15.83
2023-03-17T15:05:51.941Z,15.83
2023-03-17T15:06:51.943Z,15.80
2023-03-17T15:07:51.951Z,15.80
2023-03-17T15:08:51.920Z,15.79
2023-03-17T15:09:51.893Z,15.77
2023-03-17T15:10:51.971Z,15.79
2023-03-17T15:11:51.878Z,15.79
2023-03-17T15:12:51.885Z,15.77
2023-03-17T15:13:51.867Z,15.73
2023-03-17T15:14:51.864Z,15.75
2023-03-17T15:15:51.823Z,15.73
2023-03-17T15:16:51.956Z,15.73
2023-03-17T15:17:51.836Z,15.72
2023-03-17T15:18:51.823Z,15.75
2023-03-17T15:19:51.780Z,15.72
2023-03-17T15:20:51.806Z,15.70
2023-03-17T15:21:51.782Z,15.68
2023-03-17T15:22:51.804Z,15.73
2023-03-17T15:23:51.755Z,15.70
2023-03-17T15:24:51.748Z,15.72
2023-03-17T15:25:51.737Z,15.68
2023-03-17T15:26:51.735Z,15.68
2023-03-17T15:27:51.714Z,15.67
2023-03-17T15:28:51.717Z,15.67
2023-03-17T15:29:51.677Z,15.67
2023-03-17T15:30:52.046Z,15.68
2023-03-17T15:31:51.708Z,15.65
2023-03-17T15:32:51.724Z,15.65
2023-03-17T15:33:51.647Z,15.61
2023-03-17T15:34:51.664Z,15.61
2023-03-17T15:35:51.689Z,15.61
2023-03-17T15:36:51.639Z,15.59
2023-03-17T15:37:51.597Z,15.61
2023-03-17T15:38:51.634Z,15.61
2023-03-17T15:39:51.589Z,15.59
2023-03-17T15:40:51.602Z,15.62
2023-03-17T15:41:51.561Z,15.62
2023-03-17T15:42:51.591Z,15.61
2023-03-17T15:43:51.532Z,15.61
2023-03-17T15:44:51.560Z,15.62
2023-03-17T15:45:51.555Z,15.58
2023-03-17T15:46:51.551Z,15.59
2023-03-17T15:47:51.512Z,15.59
2023-03-17T15:48:51.500Z,15.59
2023-03-17T15:49:51.477Z,15.59
2023-03-17T15:50:51.469Z,15.57
2023-03-17T15:51:51.473Z,15.55
2023-03-17T15:52:51.459Z,15.54
2023-03-17T15:53:51.448Z,15.49
2023-03-17T15:54:51.418Z,15.47
2023-03-17T15:55:51.397Z,15.44
2023-03-17T15:56:51.421Z,15.42
2023-03-17T15:57:55.145Z,15.40
2023-03-17T15:58:51.415Z,15.36
2023-03-17T15:59:51.343Z,15.37
2023-03-17T16:00:51.342Z,15.37
2023-03-17T16:01:51.343Z,15.33
2023-03-17T16:02:51.352Z,15.29
2023-03-17T16:03:51.358Z,15.27
2023-03-17T16:04:51.313Z,15.25
2023-03-17T16:05:51.278Z,15.24
2023-03-17T16:06:51.285Z,15.19
2023-03-17T16:07:51.262Z,15.19
2023-03-17T16:08:51.271Z,15.17
2023-03-17T16:09:51.266Z,15.17
2023-03-17T16:10:51.254Z,15.11
2023-03-17T16:11:51.215Z,15.10
2023-03-17T16:12:51.226Z,15.11
2023-03-17T16:13:51.203Z,15.07
2023-03-17T16:14:51.237Z,15.06
2023-03-17T16:15:51.231Z,15.03
2023-03-17T16:16:51.207Z,15.02
2023-03-17T16:17:51.150Z,15.00
2023-03-17T16:18:51.167Z,14.99
2023-03-17T16:19:51.135Z,15.00
2023-03-17T16:20:51.214Z,14.97
2023-03-17T16:21:51.107Z,14.96
2023-03-17T16:22:51.114Z,14.96
2023-03-17T16:23:51.093Z,14.91
2023-03-17T16:24:51.101Z,14.89
2023-03-17T16:25:51.723Z,14.88
2023-03-17T16:26:51.090Z,14.89
2023-03-17T16:27:51.058Z,14.88
2023-03-17T16:28:51.046Z,14.88
2023-03-17T16:29:51.025Z,14.86
2023-03-17T16:30:51.046Z,14.85
2023-03-17T16:31:51.076Z,14.85
2023-03-17T16:32:51.069Z,14.81
2023-03-17T16:33:50.990Z,14.84
2023-03-17T16:34:51.007Z,14.79
2023-03-17T16:35:51.000Z,14.77
2023-03-17T16:36:51.024Z,14.77
2023-03-17T16:37:50.946Z,14.73
2023-03-17T16:38:50.954Z,14.73
2023-03-17T16:39:50.925Z,14.72
2023-03-17T16:40:50.926Z,14.70
2023-03-17T16:41:50.892Z,14.69
2023-03-17T16:42:50.938Z,14.68
2023-03-17T16:43:50.887Z,14.66
2023-03-17T16:44:50.977Z,14.66
2023-03-17T16:45:50.862Z,14.63
2023-03-17T16:46:50.886Z,14.62
2023-03-17T16:47:50.841Z,14.62
2023-03-17T16:48:50.858Z,14.60
2023-03-17T16:49:50.809Z,14.59
2023-03-17T16:50:50.824Z,14.55
2023-03-17T16:51:50.912Z,14.55
2023-03-17T16:52:50.805Z,14.54
2023-03-17T16:53:50.772Z,14.50
2023-03-17T16:54:50.812Z,14.47
2023-03-17T16:55:50.759Z,14.45
2023-03-17T16:56:50.788Z,14.44
2023-03-17T16:57:50.773Z,14.44
2023-03-17T16:58:50.754Z,14.41
2023-03-17T16:59:50.702Z,14.40
2023-03-17T17:00:50.714Z,14.36
2023-03-17T17:01:50.724Z,14.36
2023-03-17T17:02:50.729Z,14.35
2023-03-17T17:03:50.689Z,14.33
2023-03-17T17:04:50.650Z,14.32
2023-03-17T17:05:50.652Z,14.30
2023-03-17T17:06:50.645Z,14.29
2023-03-17T17:07:50.645Z,14.28
2023-03-17T17:08:50.656Z,14.26
2023-03-17T17:09:50.657Z,14.23
2023-03-17T17:10:50.584Z,14.22
2023-03-17T17:11:50.577Z,14.23
2023-03-17T17:12:50.571Z,14.22
2023-03-17T17:13:50.564Z,14.20
2023-03-17T17:14:50.530Z,14.18
2023-03-17T17:15:50.631Z,14.15
2023-03-17T17:16:50.513Z,14.14
2023-03-17T17:17:50.527Z,14.14
2023-03-17T17:18:50.547Z,14.10
2023-03-17T17:19:50.525Z,14.08
2023-03-17T17:20:50.512Z,14.05
2023-03-17T17:21:50.502Z,14.05
2023-03-17T17:22:50.483Z,14.05
2023-03-17T17:23:52.835Z,14.04
2023-03-17T17:24:50.432Z,14.00
2023-03-17T17:25:50.440Z,13.99
2023-03-17T17:26:50.426Z,13.96
2023-03-17T17:27:50.433Z,13.95
2023-03-17T17:28:50.413Z,13.93
2023-03-17T17:29:50.437Z,13.90
2023-03-17T17:30:50.371Z,13.87
2023-03-17T17:31:50.431Z,13.85
2023-03-17T17:32:50.383Z,13.85